Time;durP1;ratioP1;P1;durP2;ratioP2;P2;SDS_P1;SDS_P2;PMS_P1;PMS_P2;Temp;Humidity;BMP_temperature;BMP_pressure;BME280_temperature;BME280_humidity;BME280_pressure;Samples;Min_cycle;Max_cycle;Signal;HPM_P1;HPM_P2
2021/06/20 00:01:33;;;;;;;7.13;5.47;;;28.10;58.20;;;;;;5014218;28;20026;-62
2021/06/20 00:03:59;;;;;;;7.25;5.03;;;28.00;58.10;;;;;;5013814;28;20522;-62
2021/06/20 00:06:35;;;;;;;8.80;4.95;;;28.00;58.00;;;;;;5013243;28;20037;-62
2021/06/20 00:09:08;;;;;;;6.38;5.03;;;28.00;57.20;;;;;;5013468;28;20030;-62
2021/06/20 00:11:36;;;;;;;8.40;5.78;;;28.00;57.20;;;;;;5013183;28;20535;-62
2021/06/20 00:14:03;;;;;;;6.55;5.45;;;28.00;57.20;;;;;;5045501;28;20084;-61
2021/06/20 00:16:29;;;;;;;11.02;5.10;;;28.00;57.00;;;;;;5011986;28;20040;-62
2021/06/20 00:18:55;;;;;;;8.40;5.32;;;28.00;57.00;;;;;;5013149;28;20463;-62
2021/06/20 00:21:21;;;;;;;6.10;5.38;;;28.00;57.00;;;;;;5012793;28;20053;-62
2021/06/20 00:23:47;;;;;;;7.85;5.70;;;28.00;57.40;;;;;;5012622;28;20743;-61
2021/06/20 00:26:14;;;;;;;5.95;4.95;;;28.00;57.30;;;;;;5012672;28;20068;-56
2021/06/20 00:28:40;;;;;;;9.63;6.13;;;28.00;57.20;;;;;;5013152;28;20030;-61
2021/06/20 00:31:05;;;;;;;7.85;5.50;;;28.00;57.20;;;;;;5013083;28;20550;-62
2021/06/20 00:33:31;;;;;;;9.85;5.30;;;27.90;57.00;;;;;;5012485;28;20049;-61
2021/06/20 00:35:58;;;;;;;8.98;6.03;;;27.80;57.20;;;;;;5013585;28;20059;-62
2021/06/20 00:38:24;;;;;;;9.00;6.05;;;27.90;57.20;;;;;;5013069;28;20084;-61
2021/06/20 00:40:50;;;;;;;10.75;6.00;;;27.80;57.20;;;;;;5029805;28;20029;-62
2021/06/20 00:43:15;;;;;;;8.05;6.10;;;27.90;57.40;;;;;;5012556;28;20412;-61
2021/06/20 00:45:41;;;;;;;9.35;5.55;;;27.90;57.40;;;;;;5013706;28;20022;-63
2021/06/20 00:48:07;;;;;;;10.88;6.45;;;27.90;57.40;;;;;;5012250;28;20030;-61
2021/06/20 00:50:33;;;;;;;9.07;5.35;;;27.90;57.30;;;;;;5012712;28;20283;-61
2021/06/20 00:53:00;;;;;;;8.50;5.78;;;27.90;57.50;;;;;;5013085;28;20369;-61
2021/06/20 00:55:30;;;;;;;8.90;5.90;;;27.90;57.40;;;;;;5012006;28;20037;-61
2021/06/20 00:57:59;;;;;;;8.18;5.43;;;27.90;57.50;;;;;;5013189;28;20514;-63
2021/06/20 01:00:25;;;;;;;8.40;5.28;;;27.80;57.40;;;;;;5044197;28;20034;-61
2021/06/20 01:02:50;;;;;;;9.52;5.57;;;27.80;57.30;;;;;;5013348;28;20038;-61
2021/06/20 01:05:16;;;;;;;10.35;6.13;;;27.80;57.10;;;;;;5012413;28;20060;-58
2021/06/20 01:07:42;;;;;;;11.50;6.13;;;27.80;57.20;;;;;;5012131;28;20041;-60
2021/06/20 01:10:09;;;;;;;12.02;5.30;;;27.80;57.10;;;;;;5012757;28;20470;-63
2021/06/20 01:12:35;;;;;;;7.95;5.65;;;27.80;57.00;;;;;;5011855;28;20056;-63
2021/06/20 01:15:03;;;;;;;10.07;5.95;;;27.80;57.10;;;;;;5011743;28;20028;-63
2021/06/20 01:17:29;;;;;;;11.95;5.35;;;27.80;56.80;;;;;;5011967;28;20476;-63
2021/06/20 01:19:54;;;;;;;14.10;6.63;;;27.80;56.40;;;;;;5011958;28;20049;-62
2021/06/20 01:22:21;;;;;;;15.52;5.95;;;27.80;56.10;;;;;;5011809;28;20046;-62
2021/06/20 01:25:09;;;;;;;16.92;6.40;;;27.80;56.20;;;;;;5012340;28;20468;-62
2021/06/20 01:27:40;;;;;;;16.90;5.60;;;27.80;55.90;;;;;;5011804;28;20103;-61
2021/06/20 01:30:19;;;;;;;13.88;5.43;;;27.70;55.50;;;;;;5043448;28;20049;-61
2021/06/20 01:32:45;;;;;;;22.83;7.07;;;27.70;55.30;;;;;;5012582;28;20030;-62
2021/06/20 01:35:12;;;;;;;19.08;7.38;;;27.70;55.20;;;;;;5011783;28;20026;-63
2021/06/20 01:37:38;;;;;;;19.85;6.78;;;27.80;55.20;;;;;;5011592;28;20029;-61
2021/06/20 01:40:09;;;;;;;18.85;6.18;;;27.70;54.90;;;;;;5011951;28;20040;-61
2021/06/20 01:42:35;;;;;;;28.20;6.35;;;27.70;54.80;;;;;;5004615;28;20032;-62
2021/06/20 01:45:01;;;;;;;17.65;6.68;;;27.70;54.70;;;;;;5012438;28;20033;-62
2021/06/20 01:47:28;;;;;;;19.75;6.88;;;27.70;54.60;;;;;;5011226;28;20034;-61
2021/06/20 01:49:59;;;;;;;23.83;6.43;;;27.70;54.60;;;;;;5011910;28;20030;-61
2021/06/20 01:52:25;;;;;;;24.15;6.88;;;27.70;54.40;;;;;;5011212;28;20050;-62
2021/06/20 01:54:53;;;;;;;27.13;7.18;;;27.70;54.40;;;;;;5012074;28;20083;-61
2021/06/20 01:57:45;;;;;;;19.83;6.50;;;27.60;54.30;;;;;;5010920;28;20091;-58
2021/06/20 02:00:14;;;;;;;20.95;6.25;;;27.70;54.40;;;;;;5011056;28;20399;-63
2021/06/20 02:02:40;;;;;;;18.60;6.28;;;27.70;54.40;;;;;;5011549;28;20057;-62
2021/06/20 02:05:06;;;;;;;21.35;6.82;;;27.70;54.50;;;;;;5012254;28;20022;-63
2021/06/20 02:07:35;;;;;;;19.95;6.43;;;27.70;55.00;;;;;;5011598;28;20068;-62
2021/06/20 02:10:00;;;;;;;24.23;6.32;;;27.70;54.70;;;;;;5012092;28;20427;-61
2021/06/20 02:12:27;;;;;;;25.38;5.82;;;27.60;54.40;;;;;;5010772;28;20074;-61
2021/06/20 02:14:53;;;;;;;23.58;6.65;;;27.60;54.40;;;;;;5011935;28;20022;-63
2021/06/20 02:17:33;;;;;;;23.98;6.35;;;27.60;54.30;;;;;;5010961;28;20030;-57
2021/06/20 02:20:08;;;;;;;25.60;6.18;;;27.60;54.40;;;;;;5010920;28;20045;-62
2021/06/20 02:22:34;;;;;;;23.45;6.18;;;27.60;54.40;;;;;;5011183;28;20038;-59
2021/06/20 02:25:00;;;;;;;25.23;6.57;;;27.60;54.30;;;;;;5011136;28;20026;-61
2021/06/20 02:27:26;;;;;;;27.60;6.20;;;27.60;54.50;;;;;;5011081;28;20041;-61
2021/06/20 02:29:54;;;;;;;28.50;7.65;;;27.60;54.40;;;;;;5011224;28;20475;-61
2021/06/20 02:32:20;;;;;;;22.20;6.15;;;27.60;54.40;;;;;;5011088;28;20084;-57
2021/06/20 02:34:47;;;;;;;23.80;7.68;;;27.60;54.30;;;;;;5011437;28;20030;-62
2021/06/20 02:37:14;;;;;;;20.10;7.32;;;27.60;54.40;;;;;;5011216;28;20476;-62
2021/06/20 02:39:40;;;;;;;20.42;7.53;;;27.60;54.30;;;;;;5013444;28;20042;-61
2021/06/20 02:42:07;;;;;;;25.98;6.22;;;27.60;54.50;;;;;;5015523;28;20025;-63
2021/06/20 02:44:33;;;;;;;28.42;6.97;;;27.60;54.50;;;;;;5014794;28;20517;-62
2021/06/20 02:47:01;;;;;;;23.67;6.45;;;27.60;54.40;;;;;;5015604;28;20026;-62
2021/06/20 02:49:28;;;;;;;17.27;5.80;;;27.50;54.50;;;;;;5014596;28;20026;-62
2021/06/20 02:51:53;;;;;;;18.98;5.50;;;27.50;54.50;;;;;;5014765;28;20465;-62
2021/06/20 02:54:20;;;;;;;22.17;6.57;;;27.60;54.60;;;;;;5014784;28;20018;-57
2021/06/20 02:56:46;;;;;;;21.63;6.50;;;27.50;54.60;;;;;;5014708;28;20112;-62
2021/06/20 02:59:11;;;;;;;25.58;6.47;;;27.60;54.80;;;;;;5015212;28;20507;-63
2021/06/20 03:01:37;;;;;;;21.50;6.43;;;27.50;54.70;;;;;;5014217;28;20022;-61
2021/06/20 03:04:03;;;;;;;18.70;6.78;;;27.60;55.00;;;;;;5015372;28;20091;-62
2021/06/20 03:06:29;;;;;;;21.90;6.63;;;27.60;55.00;;;;;;5014070;28;20057;-62
2021/06/20 03:08:55;;;;;;;17.73;5.72;;;27.60;55.00;;;;;;5012417;28;20586;-62
2021/06/20 03:11:21;;;;;;;19.98;6.05;;;27.60;55.30;;;;;;5014261;28;20084;-57
2021/06/20 03:13:50;;;;;;;18.27;5.93;;;27.60;55.40;;;;;;5014883;28;20030;-62
2021/06/20 03:16:17;;;;;;;18.02;5.53;;;27.50;55.30;;;;;;5014938;28;20112;-63
2021/06/20 03:18:43;;;;;;;23.77;6.18;;;27.50;55.40;;;;;;5014177;28;20037;-62
2021/06/20 03:21:10;;;;;;;18.55;6.20;;;27.50;55.40;;;;;;5014953;28;20022;-61
2021/06/20 03:23:36;;;;;;;21.98;6.80;;;27.50;55.60;;;;;;5014187;28;20055;-62
2021/06/20 03:26:02;;;;;;;22.58;6.50;;;27.50;55.60;;;;;;5014464;28;20061;-62
2021/06/20 03:28:28;;;;;;;19.38;5.55;;;27.50;55.70;;;;;;5013800;28;20095;-62
2021/06/20 03:30:53;;;;;;;19.60;5.82;;;27.50;55.80;;;;;;5014668;28;20463;-63
2021/06/20 03:33:19;;;;;;;18.85;5.85;;;27.50;55.80;;;;;;5014073;28;20168;-57
2021/06/20 03:35:45;;;;;;;22.13;5.53;;;27.60;56.00;;;;;;5014171;28;20069;-62
2021/06/20 03:38:10;;;;;;;19.50;5.82;;;27.60;56.00;;;;;;5014602;28;20431;-62
2021/06/20 03:40:36;;;;;;;20.95;5.78;;;27.60;56.20;;;;;;5013273;28;20030;-61
2021/06/20 03:43:02;;;;;;;17.60;6.68;;;27.60;56.30;;;;;;5014566;28;20084;-62
2021/06/20 03:45:28;;;;;;;18.67;6.45;;;27.60;56.50;;;;;;5013532;28;20061;-61
2021/06/20 03:47:53;;;;;;;22.08;6.95;;;27.50;56.60;;;;;;5014039;28;20053;-61
2021/06/20 03:50:20;;;;;;;14.48;6.10;;;27.60;56.70;;;;;;5012348;28;20495;-57
2021/06/20 03:52:45;;;;;;;16.40;5.55;;;27.60;56.80;;;;;;5013341;28;20045;-62
2021/06/20 03:55:11;;;;;;;23.67;6.03;;;27.60;56.70;;;;;;5023533;28;20463;-62
2021/06/20 03:57:37;;;;;;;17.00;6.00;;;27.60;57.00;;;;;;5031829;28;20030;-62
2021/06/20 04:00:06;;;;;;;23.00;7.07;;;27.60;56.90;;;;;;5020681;28;20076;-62
2021/06/20 04:02:32;;;;;;;22.48;6.75;;;27.60;57.00;;;;;;5012116;28;20441;-62
2021/06/20 04:04:58;;;;;;;19.40;6.40;;;27.60;57.10;;;;;;5029568;28;20133;-62
2021/06/20 04:07:23;;;;;;;22.35;6.20;;;27.60;57.30;;;;;;5012275;28;20045;-57
2021/06/20 04:09:49;;;;;;;14.60;5.82;;;27.60;57.40;;;;;;5013876;28;20435;-62
2021/06/20 04:12:15;;;;;;;17.50;5.65;;;27.60;57.60;;;;;;5013687;28;20485;-62
2021/06/20 04:14:43;;;;;;;15.73;5.85;;;27.60;57.50;;;;;;5013312;28;20018;-63
2021/06/20 04:17:09;;;;;;;17.15;5.05;;;27.60;57.60;;;;;;5014099;28;20033;-62
2021/06/20 04:19:35;;;;;;;17.08;5.72;;;27.60;57.60;;;;;;5012791;28;20436;-62
2021/06/20 04:22:01;;;;;;;18.70;6.78;;;27.60;57.60;;;;;;5014075;28;20106;-62
2021/06/20 04:24:27;;;;;;;17.73;6.07;;;27.60;57.50;;;;;;5012925;28;20037;-61
2021/06/20 04:26:53;;;;;;;15.93;6.05;;;27.50;57.80;;;;;;5013704;28;20072;-62
2021/06/20 04:29:18;;;;;;;18.13;6.53;;;27.50;58.00;;;;;;5013569;28;20439;-62
2021/06/20 04:31:44;;;;;;;14.27;6.03;;;27.50;58.10;;;;;;5013084;28;20037;-62
2021/06/20 04:34:10;;;;;;;19.90;7.20;;;27.50;58.10;;;;;;5013499;28;20567;-62
2021/06/20 04:36:36;;;;;;;22.20;5.85;;;27.50;58.20;;;;;;5011995;28;20080;-61
2021/06/20 04:39:07;;;;;;;19.65;5.78;;;27.50;58.20;;;;;;5012933;28;20112;-63
2021/06/20 04:41:33;;;;;;;21.08;5.90;;;27.50;58.10;;;;;;5012750;28;20026;-62
2021/06/20 04:44:01;;;;;;;19.55;6.25;;;27.50;58.00;;;;;;5013231;28;20045;-62
2021/06/20 04:46:34;;;;;;;14.57;5.60;;;27.50;57.90;;;;;;5012642;28;20041;-62
2021/06/20 04:49:07;;;;;;;14.48;5.60;;;27.50;57.90;;;;;;5012648;28;20553;-62
2021/06/20 04:51:40;;;;;;;17.52;6.43;;;27.50;58.00;;;;;;5012502;28;20061;-62
2021/06/20 04:54:07;;;;;;;18.30;5.88;;;27.60;58.10;;;;;;5012675;28;20030;-62
2021/06/20 04:56:32;;;;;;;18.92;5.00;;;27.50;58.10;;;;;;5012575;28;20045;-62
2021/06/20 04:58:58;;;;;;;13.02;5.68;;;27.50;58.40;;;;;;5012755;28;20104;-63
2021/06/20 05:01:24;;;;;;;17.60;6.20;;;27.50;58.70;;;;;;5011932;28;20030;-57
2021/06/20 05:03:49;;;;;;;15.18;5.50;;;27.50;58.90;;;;;;5012595;28;20467;-62
2021/06/20 05:06:16;;;;;;;21.73;5.45;;;27.50;59.00;;;;;;5013122;28;20517;-62
2021/06/20 05:08:41;;;;;;;16.20;4.95;;;27.50;59.20;;;;;;5010987;28;20061;-63
2021/06/20 05:11:07;;;;;;;24.50;5.60;;;27.50;59.10;;;;;;5012685;28;20056;-62
2021/06/20 05:13:33;;;;;;;15.48;5.65;;;27.50;59.20;;;;;;5012249;28;20108;-62
2021/06/20 05:15:58;;;;;;;21.73;6.00;;;27.50;59.20;;;;;;5012548;28;20374;-60
2021/06/20 05:18:24;;;;;;;15.45;4.60;;;27.50;59.10;;;;;;5010989;28;20030;-57
2021/06/20 05:20:50;;;;;;;14.05;4.35;;;27.50;59.10;;;;;;5011310;28;20033;-62
2021/06/20 05:23:18;;;;;;;21.13;6.65;;;27.50;59.00;;;;;;5012209;28;20482;-62
2021/06/20 05:25:44;;;;;;;17.13;5.07;;;27.50;58.90;;;;;;5011287;28;20030;-62
2021/06/20 05:28:09;;;;;;;12.55;5.57;;;27.50;59.00;;;;;;5012436;28;20034;-61
2021/06/20 05:30:35;;;;;;;15.82;5.78;;;27.50;59.20;;;;;;5011813;28;20030;-63
2021/06/20 05:33:01;;;;;;;19.27;5.03;;;27.50;58.90;;;;;;5012562;28;20026;-61
2021/06/20 05:35:26;;;;;;;17.48;4.70;;;27.50;58.90;;;;;;5011993;28;20026;-56
2021/06/20 05:37:52;;;;;;;13.20;4.63;;;27.60;58.70;;;;;;5012393;28;20072;-64
2021/06/20 05:40:18;;;;;;;11.60;4.80;;;27.50;58.70;;;;;;5012204;28;20430;-63
2021/06/20 05:42:44;;;;;;;15.40;4.30;;;27.50;57.80;;;;;;5011369;28;20065;-64
2021/06/20 05:45:10;;;;;;;9.52;4.80;;;27.40;58.30;;;;;;5012183;28;20058;-64
2021/06/20 05:47:36;;;;;;;15.10;4.93;;;27.30;58.20;;;;;;5010898;28;20064;-63
2021/06/20 05:50:02;;;;;;;15.13;4.95;;;27.20;58.10;;;;;;5011692;28;20058;-66
2021/06/20 05:52:28;;;;;;;12.48;4.03;;;27.20;58.00;;;;;;5011180;28;20042;-64
2021/06/20 05:54:54;;;;;;;14.20;3.88;;;27.20;58.10;;;;;;5012243;28;20072;-65
2021/06/20 05:57:20;;;;;;;9.52;3.60;;;27.20;57.80;;;;;;5011834;28;20037;-64
2021/06/20 05:59:47;;;;;;;11.52;3.63;;;27.20;57.50;;;;;;5011051;28;20025;-64
2021/06/20 06:02:13;;;;;;;14.85;3.55;;;27.10;58.00;;;;;;5012417;28;20081;-63
2021/06/20 06:04:40;;;;;;;12.23;3.50;;;27.10;57.30;;;;;;5010903;28;20057;-64
2021/06/20 06:07:06;;;;;;;11.70;3.38;;;27.20;58.50;;;;;;5012571;28;20459;-66
2021/06/20 06:09:31;;;;;;;11.93;3.35;;;27.10;57.40;;;;;;5011456;28;20033;-63
2021/06/20 06:11:57;;;;;;;8.57;3.17;;;27.20;57.30;;;;;;5012174;28;20475;-68
2021/06/20 06:14:23;;;;;;;12.15;3.05;;;27.20;57.20;;;;;;5010818;28;20045;-62
2021/06/20 06:16:50;;;;;;;9.85;3.03;;;27.10;56.70;;;;;;5011058;28;20037;-65
2021/06/20 06:19:17;;;;;;;12.30;3.92;;;27.10;56.60;;;;;;5011911;28;20049;-64
2021/06/20 06:21:43;;;;;;;12.32;3.25;;;27.10;57.40;;;;;;5012208;28;20044;-69
2021/06/20 06:24:09;;;;;;;8.68;3.25;;;27.00;56.00;;;;;;5004144;28;20034;-66
2021/06/20 06:26:35;;;;;;;15.23;3.25;;;26.90;56.90;;;;;;5007129;28;20034;-62
2021/06/20 06:29:01;;;;;;;8.90;2.70;;;26.80;56.30;;;;;;5007959;28;20042;-57
2021/06/20 06:31:26;;;;;;;8.52;3.22;;;26.80;56.80;;;;;;5001812;28;20140;-60
2021/06/20 06:33:52;;;;;;;11.93;3.10;;;26.70;58.00;;;;;;5003417;28;20218;-61
2021/06/20 06:36:19;;;;;;;9.13;3.65;;;26.90;56.90;;;;;;5000029;28;20364;-66
2021/06/20 06:38:45;;;;;;;12.05;3.38;;;26.90;56.10;;;;;;5002974;28;20076;-62
2021/06/20 06:41:12;;;;;;;12.95;3.42;;;26.90;56.00;;;;;;5010172;28;20052;-62
2021/06/20 06:43:38;;;;;;;16.05;3.40;;;26.80;57.10;;;;;;5002292;28;20053;-64
2021/06/20 06:46:03;;;;;;;10.30;3.03;;;26.90;56.50;;;;;;5000413;28;20038;-65
2021/06/20 06:48:29;;;;;;;8.80;2.88;;;26.90;56.50;;;;;;5008238;28;20033;-71
2021/06/20 06:50:55;;;;;;;11.60;3.53;;;26.90;57.00;;;;;;5008336;28;20382;-68
2021/06/20 06:53:21;;;;;;;10.80;3.70;;;27.00;57.40;;;;;;5004824;28;20058;-64
2021/06/20 06:55:46;;;;;;;12.75;4.20;;;27.10;57.70;;;;;;5002869;28;20461;-61
2021/06/20 06:58:12;;;;;;;13.80;4.30;;;27.10;58.10;;;;;;5010643;28;20526;-69
2021/06/20 07:00:38;;;;;;;17.98;5.68;;;27.00;58.90;;;;;;5009604;28;20026;-61
2021/06/20 07:03:04;;;;;;;20.55;5.65;;;26.90;59.90;;;;;;5011129;28;20374;-64
2021/06/20 07:05:30;;;;;;;13.57;5.65;;;27.00;59.90;;;;;;5017307;28;20026;-64
2021/06/20 07:07:56;;;;;;;17.92;5.63;;;27.00;60.70;;;;;;5010132;28;20034;-69
2021/06/20 07:10:22;;;;;;;17.83;6.05;;;27.00;60.10;;;;;;5011355;28;20110;-65
2021/06/20 07:12:48;;;;;;;27.42;7.63;;;27.00;60.20;;;;;;5010351;28;20128;-65
2021/06/20 07:15:14;;;;;;;17.40;6.25;;;27.10;60.40;;;;;;5011254;28;20109;-63
2021/06/20 07:17:40;;;;;;;17.48;5.45;;;27.10;60.20;;;;;;5010520;28;20069;-65
2021/06/20 07:20:10;;;;;;;16.08;6.15;;;27.10;60.00;;;;;;5011019;28;20070;-63
2021/06/20 07:22:37;;;;;;;20.08;5.35;;;27.10;59.90;;;;;;5010213;28;20030;-61
2021/06/20 07:25:04;;;;;;;14.27;4.53;;;27.10;59.70;;;;;;5012977;28;20034;-62
2021/06/20 07:27:30;;;;;;;14.88;5.75;;;27.10;59.90;;;;;;5013884;28;20042;-59
2021/06/20 07:29:56;;;;;;;14.82;4.68;;;27.10;59.60;;;;;;5011522;28;20038;-61
2021/06/20 07:32:21;;;;;;;15.30;4.72;;;27.20;59.50;;;;;;5014766;28;20022;-62
2021/06/20 07:34:51;;;;;;;14.82;5.75;;;27.20;59.60;;;;;;5013873;28;20609;-60
2021/06/20 07:37:17;;;;;;;11.98;4.95;;;27.20;59.70;;;;;;5014613;28;20033;-60
2021/06/20 07:39:42;;;;;;;14.18;4.38;;;27.20;59.60;;;;;;5014076;28;20037;-63
2021/06/20 07:42:08;;;;;;;16.50;4.70;;;27.20;59.60;;;;;;5016214;28;20105;-62
2021/06/20 07:44:33;;;;;;;14.82;4.93;;;27.20;59.70;;;;;;5026572;28;20583;-57
2021/06/20 07:46:59;;;;;;;18.70;4.28;;;27.20;60.00;;;;;;5004745;28;20037;-62
2021/06/20 07:49:25;;;;;;;9.70;3.85;;;27.20;59.90;;;;;;5014549;28;20087;-64
2021/06/20 07:51:50;;;;;;;13.30;5.20;;;27.10;59.90;;;;;;5013026;28;20103;-64
2021/06/20 07:54:16;;;;;;;18.65;5.07;;;27.10;59.80;;;;;;5013402;28;20037;-64
2021/06/20 07:56:42;;;;;;;16.13;5.20;;;27.20;59.80;;;;;;5019157;28;20033;-70
2021/06/20 07:59:08;;;;;;;13.88;3.83;;;27.20;59.80;;;;;;5016740;28;20026;-65
2021/06/20 08:01:33;;;;;;;10.43;4.10;;;27.10;59.80;;;;;;5013680;28;20564;-66
2021/06/20 08:03:59;;;;;;;12.80;4.57;;;27.10;59.90;;;;;;5014810;28;20456;-68
2021/06/20 08:06:24;;;;;;;13.07;4.32;;;27.10;59.70;;;;;;5014235;28;20040;-66
2021/06/20 08:08:55;;;;;;;12.07;4.20;;;27.10;60.00;;;;;;5011142;28;20033;-66
2021/06/20 08:11:22;;;;;;;12.50;4.07;;;27.10;60.10;;;;;;5012649;28;20026;-67
2021/06/20 08:13:48;;;;;;;9.00;3.78;;;27.20;59.80;;;;;;5013146;28;20018;-67
2021/06/20 08:16:13;;;;;;;14.60;4.65;;;27.10;59.70;;;;;;5014210;28;20398;-64
2021/06/20 08:18:39;;;;;;;13.05;4.38;;;27.10;59.60;;;;;;5014150;28;20044;-66
2021/06/20 08:21:05;;;;;;;8.68;4.60;;;27.10;59.60;;;;;;5021037;28;20038;-66
2021/06/20 08:23:30;;;;;;;14.07;4.70;;;27.10;59.60;;;;;;5009703;28;20117;-65
2021/06/20 08:25:56;;;;;;;11.63;4.22;;;27.00;60.10;;;;;;5007039;28;20383;-69
2021/06/20 08:28:22;;;;;;;14.30;5.32;;;27.10;59.90;;;;;;5005540;28;20026;-67
2021/06/20 08:30:49;;;;;;;10.65;4.03;;;27.10;59.60;;;;;;5010317;28;20033;-62
2021/06/20 08:33:15;;;;;;;13.73;4.60;;;27.10;59.80;;;;;;5009721;28;20026;-65
2021/06/20 08:35:41;;;;;;;10.57;3.80;;;27.10;59.70;;;;;;5006143;28;20037;-66
2021/06/20 08:38:06;;;;;;;9.75;3.30;;;27.10;59.70;;;;;;5009393;28;20056;-65
2021/06/20 08:40:32;;;;;;;10.18;3.88;;;27.20;59.80;;;;;;5006151;28;20430;-60
2021/06/20 08:42:59;;;;;;;10.15;3.70;;;27.20;59.80;;;;;;5009535;28;20108;-66
2021/06/20 08:45:27;;;;;;;11.68;4.28;;;27.20;59.60;;;;;;5008305;28;20079;-63
2021/06/20 08:47:53;;;;;;;10.40;3.92;;;27.10;59.50;;;;;;5019401;28;20072;-65
2021/06/20 08:50:19;;;;;;;9.90;4.28;;;27.10;59.50;;;;;;5006225;28;20045;-65
2021/06/20 08:52:45;;;;;;;14.77;3.90;;;27.10;59.70;;;;;;5009734;28;20046;-63
2021/06/20 08:55:12;;;;;;;11.13;4.32;;;27.10;59.20;;;;;;5004442;28;20534;-64
2021/06/20 08:57:41;;;;;;;13.48;3.65;;;27.10;59.50;;;;;;5011464;28;20033;-61
2021/06/20 09:00:16;;;;;;;12.25;3.80;;;27.10;60.20;;;;;;5009588;28;20034;-65
2021/06/20 09:02:42;;;;;;;9.23;3.95;;;27.00;59.60;;;;;;5007532;28;20026;-63
2021/06/20 09:05:10;;;;;;;10.98;3.55;;;27.00;59.30;;;;;;5012605;28;20120;-64
2021/06/20 09:07:36;;;;;;;9.60;3.78;;;27.10;59.80;;;;;;5011847;28;20510;-61
2021/06/20 09:10:30;;;;;;;17.23;5.07;;;27.10;59.70;;;;;;5012712;28;20157;-62
2021/06/20 09:12:59;;;;;;;12.25;4.00;;;27.10;59.80;;;;;;5005190;28;20498;-68
2021/06/20 09:15:30;;;;;;;13.23;4.32;;;27.10;59.80;;;;;;5012059;28;20520;-61
2021/06/20 09:17:57;;;;;;;13.52;4.80;;;27.10;59.80;;;;;;5012304;28;20115;-66
2021/06/20 09:20:42;;;;;;;14.88;4.43;;;27.20;60.70;;;;;;5012765;28;20049;-65
2021/06/20 09:23:10;;;;;;;19.55;4.78;;;27.20;60.00;;;;;;5012530;28;20033;-63
2021/06/20 09:25:38;;;;;;;16.65;4.90;;;27.20;60.50;;;;;;5012808;28;20026;-63
2021/06/20 09:28:05;;;;;;;14.95;4.53;;;27.20;60.20;;;;;;5013013;28;20040;-63
2021/06/20 09:30:31;;;;;;;12.15;4.30;;;27.30;60.60;;;;;;5011472;28;20068;-59
2021/06/20 09:33:04;;;;;;;13.35;4.65;;;27.30;59.40;;;;;;5012638;28;20044;-64
2021/06/20 09:35:55;;;;;;;12.25;3.97;;;27.20;59.70;;;;;;5012009;28;20030;-60
2021/06/20 09:38:23;;;;;;;12.60;4.03;;;27.10;59.50;;;;;;5012523;28;20395;-63
2021/06/20 09:41:27;;;;;;;14.63;3.92;;;27.10;59.70;;;;;;5011584;28;20025;-63
2021/06/20 09:43:55;;;;;;;8.23;4.03;;;27.10;60.00;;;;;;4970624;28;20035;-63
2021/06/20 09:46:21;;;;;;;12.20;3.75;;;27.10;59.70;;;;;;5003769;28;20049;-63
2021/06/20 09:48:47;;;;;;;10.80;3.50;;;27.10;59.40;;;;;;5011240;28;20057;-63
2021/06/20 09:51:22;;;;;;;10.57;3.85;;;27.10;59.40;;;;;;5012318;28;20117;-63
2021/06/20 09:53:50;;;;;;;14.13;3.97;;;27.10;59.40;;;;;;5011052;28;20113;-63
2021/06/20 09:56:25;;;;;;;14.13;5.97;;;27.20;59.40;;;;;;5012076;28;20038;-63
2021/06/20 09:59:06;;;;;;;11.30;4.03;;;27.20;59.20;;;;;;5011338;28;20038;-63
2021/06/20 10:01:35;;;;;;;16.02;4.57;;;27.20;59.60;;;;;;5008158;28;20120;-59
2021/06/20 10:04:01;;;;;;;10.77;3.45;;;27.20;59.40;;;;;;5012497;28;20029;-63
2021/06/20 10:06:27;;;;;;;9.52;3.95;;;27.20;59.60;;;;;;5012360;28;20042;-62
2021/06/20 10:08:53;;;;;;;14.18;4.40;;;27.10;59.00;;;;;;5005153;28;20491;-62
2021/06/20 10:11:19;;;;;;;13.90;4.07;;;27.10;59.20;;;;;;5011764;28;20060;-63
2021/06/20 10:13:45;;;;;;;10.68;3.60;;;27.10;59.10;;;;;;5011049;28;20670;-63
2021/06/20 10:16:19;;;;;;;14.98;4.15;;;27.10;59.30;;;;;;5011624;28;20065;-61
2021/06/20 10:19:09;;;;;;;11.30;3.00;;;27.20;59.50;;;;;;5011064;28;20135;-66
2021/06/20 10:21:36;;;;;;;14.83;3.57;;;27.10;59.10;;;;;;5019537;28;20061;-59
2021/06/20 10:24:17;;;;;;;9.43;3.83;;;27.30;59.10;;;;;;5040755;28;20388;-63
2021/06/20 10:26:57;;;;;;;11.57;3.25;;;27.30;58.50;;;;;;5006498;28;20606;-66
2021/06/20 10:29:28;;;;;;;9.02;3.40;;;27.30;59.10;;;;;;5011452;28;20483;-65
2021/06/20 10:31:54;;;;;;;15.80;3.30;;;27.30;57.20;;;;;;5011410;28;20034;-61
2021/06/20 10:34:22;;;;;;;13.85;4.13;;;27.20;57.30;;;;;;5011275;28;20041;-63
2021/06/20 10:36:55;;;;;;;11.43;3.10;;;27.30;57.30;;;;;;5010762;28;20091;-67
2021/06/20 10:39:22;;;;;;;11.75;3.17;;;27.40;57.30;;;;;;5011180;28;20037;-68
2021/06/20 10:41:48;;;;;;;7.57;2.97;;;27.40;57.50;;;;;;5010824;28;20026;-60
2021/06/20 10:44:13;;;;;;;8.55;3.00;;;27.40;56.90;;;;;;5011360;28;20406;-64
2021/06/20 10:46:41;;;;;;;11.68;3.15;;;27.40;57.30;;;;;;5008813;28;20120;-59
2021/06/20 10:49:20;;;;;;;13.15;3.35;;;27.40;57.00;;;;;;5011441;28;20374;-60
2021/06/20 10:51:46;;;;;;;10.38;3.30;;;27.40;57.00;;;;;;5010403;28;20050;-62
2021/06/20 10:54:25;;;;;;;9.52;2.80;;;27.40;56.70;;;;;;5010958;28;20022;-54
2021/06/20 10:57:00;;;;;;;7.55;2.95;;;27.40;56.20;;;;;;5010611;28;20026;-55
2021/06/20 10:59:26;;;;;;;9.55;2.90;;;27.40;56.50;;;;;;5011948;28;20084;-53
2021/06/20 11:01:52;;;;;;;12.65;2.53;;;27.50;56.60;;;;;;5014373;28;20486;-48
2021/06/20 11:04:18;;;;;;;9.18;2.80;;;27.50;55.80;;;;;;5015052;28;20056;-48
2021/06/20 11:06:57;;;;;;;11.93;3.08;;;27.50;55.80;;;;;;5014135;28;20038;-56
2021/06/20 11:09:34;;;;;;;5.28;2.40;;;27.50;55.60;;;;;;5008956;28;20100;-56
2021/06/20 11:12:05;;;;;;;10.82;3.03;;;27.50;55.50;;;;;;5015176;28;20034;-58
2021/06/20 11:14:44;;;;;;;10.23;2.67;;;27.50;55.40;;;;;;5014926;28;20048;-58
2021/06/20 11:17:10;;;;;;;11.63;2.85;;;27.50;55.10;;;;;;5014564;28;20661;-57
2021/06/20 11:19:36;;;;;;;17.17;3.03;;;27.50;55.00;;;;;;5013936;28;20113;-56
2021/06/20 11:22:07;;;;;;;13.60;2.95;;;27.60;55.20;;;;;;5015212;28;20037;-57
2021/06/20 11:24:48;;;;;;;13.20;2.42;;;27.60;55.50;;;;;;5013235;28;20034;-59
2021/06/20 11:27:16;;;;;;;13.88;2.47;;;27.70;55.40;;;;;;5022474;28;20368;-48
2021/06/20 11:29:47;;;;;;;10.73;2.85;;;27.80;55.20;;;;;;5013872;28;20375;-51
2021/06/20 11:32:15;;;;;;;;;;;27.80;55.10;;;;;;5015198;28;20083;-53
2021/06/20 11:34:49;;;;;;;10.07;4.10;;;28.00;57.60;;;;;;5013911;28;19960;-60
2021/06/20 11:37:24;;;;;;;11.80;2.72;;;28.10;55.60;;;;;;5014619;28;20026;-59
2021/06/20 11:39:55;;;;;;;13.75;3.22;;;28.20;55.00;;;;;;5013732;28;20068;-58
2021/06/20 11:42:27;;;;;;;16.63;3.25;;;28.20;55.60;;;;;;5015172;28;20072;-55
2021/06/20 11:45:00;;;;;;;15.52;3.60;;;28.20;56.70;;;;;;5013503;28;20497;-57
2021/06/20 11:47:30;;;;;;;10.57;4.10;;;28.30;57.10;;;;;;5014347;28;20037;-58
2021/06/20 11:49:56;;;;;;;8.65;3.72;;;28.50;57.50;;;;;;5013777;28;20053;-59
2021/06/20 11:52:25;;;;;;;10.48;3.08;;;28.60;55.90;;;;;;5013864;28;20042;-57
2021/06/20 11:55:04;;;;;;;9.48;3.63;;;28.60;55.50;;;;;;5010845;28;20037;-53
2021/06/20 11:57:31;;;;;;;9.70;3.42;;;28.60;55.80;;;;;;5014140;28;20041;-58
2021/06/20 12:00:10;;;;;;;8.43;3.38;;;28.50;55.60;;;;;;5013313;28;20069;-57
2021/06/20 12:02:35;;;;;;;9.25;3.10;;;28.50;55.70;;;;;;5013488;28;20030;-58
2021/06/20 12:05:02;;;;;;;8.63;3.78;;;28.50;55.60;;;;;;5014015;28;20026;-55
2021/06/20 12:07:28;;;;;;;6.90;2.97;;;28.50;55.30;;;;;;5012009;28;20384;-56
2021/06/20 12:09:54;;;;;;;13.82;3.83;;;28.50;54.80;;;;;;5013263;28;20093;-56
2021/06/20 12:12:20;;;;;;;10.20;3.00;;;28.50;54.90;;;;;;5012980;28;20025;-57
2021/06/20 12:15:00;;;;;;;14.98;3.58;;;28.50;54.70;;;;;;5012972;28;20022;-56
2021/06/20 12:17:28;;;;;;;12.73;2.92;;;28.50;54.50;;;;;;5013841;28;20065;-59
2021/06/20 12:19:54;;;;;;;10.77;2.95;;;28.40;54.10;;;;;;5012740;28;20048;-59
2021/06/20 12:22:21;;;;;;;10.25;2.88;;;28.30;54.10;;;;;;5013349;28;20038;-58
2021/06/20 12:24:56;;;;;;;12.90;3.05;;;28.30;53.60;;;;;;5012849;28;20097;-56
2021/06/20 12:27:33;;;;;;;9.43;3.10;;;28.30;53.30;;;;;;5013503;28;20037;-57
2021/06/20 12:30:10;;;;;;;14.63;3.20;;;28.30;53.40;;;;;;5012887;28;20033;-58
2021/06/20 12:32:36;;;;;;;9.18;2.90;;;28.30;53.00;;;;;;5013192;28;20022;-59
2021/06/20 12:35:02;;;;;;;9.15;2.70;;;28.30;53.20;;;;;;5013295;28;20463;-58
2021/06/20 12:37:41;;;;;;;9.85;3.22;;;28.30;53.40;;;;;;5012963;28;20026;-57
2021/06/20 12:40:12;;;;;;;10.82;2.70;;;28.30;52.80;;;;;;5013570;28;20034;-57
2021/06/20 12:42:47;;;;;;;14.95;3.78;;;28.40;53.00;;;;;;5012401;28;20041;-58